Aérodrome :
LOGIN :

S'inscrire | Disclaimer

   EN    FR    IT 

 










Légende :    VFR   VFR Marginal   IFR   IFR Intensif   IFR Très Intensif
Visi : 
Plafond : 
>= 8 km
>= 3000ft
5 à 8 km
1000 à 3000 ft
1500m à 5 km
500 à 1000 ft
800 à 1500m
200 à 500 ft
< 800m
< 200 ft
Symboles :   Orages  Brouillard  Fortes neiges  Fortes précipitations  Vent > 20 kt
SIGMETs :   Divers  Orages  Givrage  Turbulence  Onde Orograph.  Cendres Volcan.






- Altitude de l'aérodrome : 538 ft
- Code IATA : TNF


LFPN - Toussus Le Noble

DERNIER METAR :
  • 050600Z AUTO 25011KT 9999 OVC010 18/16 Q1017 TEMPO 3000 -RADZ

METARs EXPIRÉS :
  • 050530Z AUTO 25009KT 9999 OVC007 18/16 Q1017 TEMPO 3000 -RADZ
  • 050500Z AUTO 25009KT 9999 OVC008 18/16 Q1017
  • 050430Z AUTO 24009KT 9999 OVC009 18/16 Q1017
  • 050400Z AUTO 24010KT 9999 -RADZ OVC009 18/16 Q1017
  • 050330Z AUTO 24009KT 9999 OVC010 18/16 Q1017

TAF TAF LFPN
Valide du 05 à 06h jusqu'au 05 à 15h UTC


050500Z 0506/0515 24010KT 9999 BKN012
TEMPO 0506/0508 3000 -RADZ BKN005
BECMG 0509/0511 24015G25KT BKN025
ATIS : +33 1 39 56 54 70



MET'MAP, la Météo Aéronautique d'un coup d'oeil ! - Copyright ORBIFLY Décembre 2007 - Disclaimer

ORBIFLY MET'MAP TEAM :

Programmation & Développement : Alexandra Zaïnal
Sur une idée originale de : Baudouin d'Aumeries
Assistance à la programmation : Marc-Olivier Méhu
Soutien technique & logistique : Manuel Goepfert

Contact : metmap@orbifly.com




SOURCES & CREDITS :

   NOAA